Time;durP1;ratioP1;P1;durP2;ratioP2;P2;SDS_P1;SDS_P2;PMS_P1;PMS_P2;Temp;Humidity;BMP_temperature;BMP_pressure;BME280_temperature;BME280_humidity;BME280_pressure;Samples;Min_cycle;Max_cycle;Signal;HPM_P1;HPM_P2
2021/12/19 00:00:45;;;;;;;5.72;0.90;;;;;;;19.73;32.73;97316.00;5153704;27;20038;-65
2021/12/19 00:03:37;;;;;;;4.60;0.90;;;;;;;19.75;32.71;97300.50;5141879;27;20493;-64
2021/12/19 00:08:52;;;;;;;1.80;0.88;;;;;;;19.66;32.49;97300.03;5150224;27;20026;-64
2021/12/19 00:11:21;;;;;;;5.15;0.73;;;;;;;19.62;32.59;97286.28;5155720;27;20038;-63
2021/12/19 00:13:47;;;;;;;2.25;0.80;;;;;;;19.61;32.75;97275.81;5155849;27;20050;-64
2021/12/19 00:16:13;;;;;;;1.35;0.57;;;;;;;19.59;32.62;97267.97;5157026;27;20035;-64
2021/12/19 00:18:42;;;;;;;3.67;0.82;;;;;;;19.57;32.40;97247.81;5156115;27;20492;-63
2021/12/19 00:21:10;;;;;;;1.23;0.60;;;;;;;19.57;32.56;97245.94;5155352;27;20070;-64
2021/12/19 00:23:36;;;;;;;1.75;0.82;;;;;;;19.54;32.48;97232.19;5142114;27;20078;-63
2021/12/19 00:26:02;;;;;;;0.85;0.60;;;;;;;19.53;32.43;97217.97;5156092;27;20481;-62
2021/12/19 00:28:27;;;;;;;2.25;1.00;;;;;;;19.54;32.35;97216.94;5151148;27;20047;-63
2021/12/19 00:30:53;;;;;;;1.13;0.57;;;;;;;19.54;32.55;97216.09;5155440;27;20045;-62
2021/12/19 00:33:18;;;;;;;3.40;0.70;;;;;;;19.55;32.39;97215.03;5150164;27;20113;-62
2021/12/19 00:35:44;;;;;;;3.13;0.60;;;;;;;19.54;32.42;97205.38;5156552;27;20416;-62
2021/12/19 00:38:09;;;;;;;2.00;0.80;;;;;;;19.54;32.28;97194.63;5155748;27;20018;-63
2021/12/19 00:40:37;;;;;;;2.58;0.80;;;;;;;19.51;32.34;97185.22;5142039;27;20022;-63
2021/12/19 00:43:09;;;;;;;0.85;0.50;;;;;;;19.50;32.41;97170.16;5155284;27;20510;-63
2021/12/19 00:45:38;;;;;;;1.77;0.75;;;;;;;19.48;32.33;97164.22;5155754;27;20031;-63
2021/12/19 00:48:05;;;;;;;1.25;0.93;;;;;;;19.48;32.35;97154.28;5154478;27;20030;-62
2021/12/19 00:50:32;;;;;;;1.30;0.60;;;;;;;19.48;32.38;97148.13;5150772;27;20096;-63
2021/12/19 00:52:58;;;;;;;1.77;1.00;;;;;;;19.47;32.38;97136.59;5143121;27;20422;-61
2021/12/19 00:55:27;;;;;;;2.40;0.55;;;;;;;19.46;32.45;97121.56;5137807;27;20061;-61
2021/12/19 00:57:53;;;;;;;0.88;0.70;;;;;;;19.45;32.55;97119.94;5136696;27;20018;-62
2021/12/19 01:00:21;;;;;;;1.58;0.77;;;;;;;19.46;32.25;97108.16;5134019;27;20031;-61
2021/12/19 01:02:50;;;;;;;1.67;0.68;;;;;;;19.44;32.37;97094.16;5133772;27;20489;-62
2021/12/19 01:05:17;;;;;;;0.60;0.50;;;;;;;19.46;32.24;97097.44;5133753;27;20039;-61
2021/12/19 01:07:43;;;;;;;1.20;0.75;;;;;;;19.47;32.16;97087.50;5140735;27;20029;-61
2021/12/19 01:10:09;;;;;;;1.27;0.68;;;;;;;19.46;32.17;97078.66;5148248;27;20035;-62
2021/12/19 01:12:38;;;;;;;0.93;0.50;;;;;;;19.46;32.04;97062.56;5134016;27;20473;-62
2021/12/19 01:15:11;;;;;;;0.90;0.40;;;;;;;19.46;32.06;97045.66;5133608;27;20501;-63
2021/12/19 01:17:37;;;;;;;0.95;0.50;;;;;;;19.46;32.00;97043.78;5137917;27;20034;-63
2021/12/19 01:20:11;;;;;;;0.75;0.40;;;;;;;19.46;32.11;97042.97;5154140;27;20043;-62
2021/12/19 01:22:37;;;;;;;0.60;0.47;;;;;;;19.44;31.98;97024.44;5140891;27;20034;-61
2021/12/19 01:25:04;;;;;;;1.20;0.63;;;;;;;19.45;32.00;97025.25;5152902;27;20426;-62
2021/12/19 01:27:30;;;;;;;1.33;0.43;;;;;;;19.44;32.02;97011.03;5143157;27;20042;-63
2021/12/19 01:29:55;;;;;;;0.57;0.40;;;;;;;19.44;32.11;97002.16;5152870;27;20040;-63
2021/12/19 01:32:21;;;;;;;0.98;0.60;;;;;;;19.43;32.17;96998.69;5152752;27;20035;-63
2021/12/19 01:34:46;;;;;;;1.30;0.50;;;;;;;19.42;32.05;96993.53;5153541;27;20027;-63
2021/12/19 01:37:13;;;;;;;0.88;0.50;;;;;;;19.44;32.13;96986.06;5142686;27;20559;-64
2021/12/19 01:39:39;;;;;;;1.77;0.60;;;;;;;19.44;32.13;96969.97;5150530;27;20034;-63
2021/12/19 01:42:09;;;;;;;1.23;0.50;;;;;;;19.43;32.14;96968.34;5151585;27;20093;-63
2021/12/19 01:44:36;;;;;;;0.73;0.40;;;;;;;19.45;32.12;96960.88;5135232;27;20038;-63
2021/12/19 01:47:01;;;;;;;0.73;0.47;;;;;;;19.44;32.00;96949.34;5137256;27;20505;-62
2021/12/19 01:49:27;;;;;;;0.93;0.65;;;;;;;19.45;31.90;96940.25;5147279;27;20038;-63
2021/12/19 01:51:53;;;;;;;1.48;0.60;;;;;;;19.45;32.04;96934.06;5152725;27;20065;-63
2021/12/19 01:54:18;;;;;;;0.60;0.40;;;;;;;19.45;32.04;96926.84;5152031;27;20034;-62
2021/12/19 01:56:44;;;;;;;0.60;0.43;;;;;;;19.46;31.97;96920.44;5145377;27;20040;-63
2021/12/19 01:59:10;;;;;;;1.00;0.50;;;;;;;19.44;32.00;96914.50;5146077;27;20049;-62
2021/12/19 02:01:52;;;;;;;1.00;0.38;;;;;;;19.44;32.18;96894.91;5151875;27;20054;-62
2021/12/19 02:04:18;;;;;;;;;;;;;;;19.41;32.07;96896.22;5151755;27;20040;-62
2021/12/19 02:06:44;;;;;;;1.08;0.65;;;;;;;19.42;31.93;96873.69;5142069;27;20014;-63
2021/12/19 02:09:11;;;;;;;1.58;0.43;;;;;;;19.43;32.05;96875.34;5146850;27;20031;-62
2021/12/19 02:11:39;;;;;;;0.85;0.50;;;;;;;19.43;32.05;96856.56;5154082;27;20030;-62
2021/12/19 02:14:07;;;;;;;0.63;0.50;;;;;;;19.45;32.04;96856.31;5150413;27;20042;-61
2021/12/19 02:16:35;;;;;;;0.90;0.50;;;;;;;19.43;32.06;96834.28;5141886;27;20038;-62
2021/12/19 02:19:02;;;;;;;0.50;0.40;;;;;;;19.43;32.03;96832.44;5152238;27;20030;-62
2021/12/19 02:21:28;;;;;;;0.52;0.50;;;;;;;19.44;32.12;96828.69;5154751;27;20034;-62
2021/12/19 02:23:58;;;;;;;0.50;0.40;;;;;;;19.44;32.09;96815.28;5134404;27;20117;-62
2021/12/19 02:26:24;;;;;;;0.50;0.43;;;;;;;19.43;32.17;96800.25;5149424;27;20082;-62
2021/12/19 02:28:49;;;;;;;0.80;0.47;;;;;;;19.43;31.93;96805.63;5153483;27;20486;-63
2021/12/19 02:31:15;;;;;;;0.50;0.40;;;;;;;19.44;32.00;96793.00;5154031;27;20038;-63
2021/12/19 02:33:44;;;;;;;0.73;0.50;;;;;;;19.44;31.98;96793.00;5153439;27;20026;-63
2021/12/19 02:49:33;;;;;;;0.55;0.50;;;;;;;19.44;32.04;96725.97;5152568;27;20042;-63
2021/12/19 02:52:03;;;;;;;0.52;0.40;;;;;;;19.44;31.95;96721.44;5153031;27;20122;-63
2021/12/19 02:54:29;;;;;;;0.77;0.47;;;;;;;19.45;32.15;96725.75;5149932;27;20063;-62
2021/12/19 02:56:55;;;;;;;0.43;0.32;;;;;;;19.46;32.17;96711.28;5133997;27;20047;-63
2021/12/19 02:59:21;;;;;;;0.38;0.28;;;;;;;19.46;31.98;96703.22;5132719;28;20065;-63
2021/12/19 03:01:47;;;;;;;0.80;0.50;;;;;;;19.48;32.00;96687.69;5133412;28;20051;-63
2021/12/19 03:04:13;;;;;;;1.13;0.50;;;;;;;19.49;32.10;96693.88;5132764;28;20039;-63
2021/12/19 03:06:47;;;;;;;1.27;0.63;;;;;;;19.49;31.90;96683.94;5149745;27;20023;-63
2021/12/19 03:09:20;;;;;;;0.60;0.30;;;;;;;19.50;32.10;96687.44;5139598;27;20043;-63
2021/12/19 03:19:45;;;;;;;0.90;0.50;;;;;;;19.46;32.22;96652.28;5155425;27;20045;-63
2021/12/19 03:22:10;;;;;;;0.32;0.30;;;;;;;19.47;32.31;96643.19;5156989;27;20038;-63
2021/12/19 03:24:36;;;;;;;0.63;0.50;;;;;;;19.49;32.30;96640.25;5152866;27;20059;-63
2021/12/19 03:27:01;;;;;;;0.98;0.45;;;;;;;19.49;32.46;96641.03;5136469;27;20101;-63
2021/12/19 03:29:27;;;;;;;0.60;0.40;;;;;;;19.49;32.54;96640.25;5147976;27;20045;-62
2021/12/19 03:31:53;;;;;;;0.70;0.40;;;;;;;19.49;32.54;96634.88;5152813;27;20038;-63
2021/12/19 03:34:18;;;;;;;0.47;0.40;;;;;;;19.50;32.43;96642.66;5153343;27;20034;-63
2021/12/19 03:36:45;;;;;;;0.40;0.40;;;;;;;19.50;32.49;96626.56;5142496;27;20109;-63
2021/12/19 03:39:24;;;;;;;0.52;0.50;;;;;;;19.50;32.55;96621.22;5155504;27;20121;-62
2021/12/19 03:41:51;;;;;;;0.75;0.50;;;;;;;19.50;32.49;96605.13;5156416;27;20045;-63
2021/12/19 03:44:18;;;;;;;0.80;0.52;;;;;;;19.50;32.57;96599.75;5153711;27;20039;-63
2021/12/19 03:46:43;;;;;;;0.95;0.50;;;;;;;19.50;32.53;96597.06;5156421;27;20062;-62
2021/12/19 03:49:09;;;;;;;0.75;0.50;;;;;;;19.49;32.42;96592.78;5156352;27;20164;-62
2021/12/19 03:51:34;;;;;;;0.73;0.40;;;;;;;19.50;32.57;96594.41;5155200;27;20026;-62
2021/12/19 03:54:00;;;;;;;0.85;0.47;;;;;;;19.49;32.54;96581.25;5152748;27;20019;-62
2021/12/19 03:56:25;;;;;;;0.70;0.40;;;;;;;19.49;32.43;96573.22;5154060;27;20054;-62
2021/12/19 03:58:51;;;;;;;0.95;0.65;;;;;;;19.52;32.39;96572.72;5141086;27;20117;-62
2021/12/19 04:01:18;;;;;;;0.35;0.35;;;;;;;19.51;32.62;96563.03;5136098;27;20054;-62
2021/12/19 04:03:45;;;;;;;0.30;0.28;;;;;;;19.52;32.30;96551.25;5145235;27;20057;-62
2021/12/19 04:06:11;;;;;;;0.50;0.40;;;;;;;19.52;32.42;96541.31;5156797;27;20106;-62
2021/12/19 04:08:36;;;;;;;0.47;0.30;;;;;;;19.54;32.45;96540.25;5156578;27;20476;-62
2021/12/19 04:11:03;;;;;;;0.45;0.40;;;;;;;19.53;32.34;96539.47;5156417;27;20041;-62
2021/12/19 04:13:28;;;;;;;0.52;0.43;;;;;;;19.52;32.22;96522.56;5153641;27;20079;-62
2021/12/19 04:15:54;;;;;;;1.25;0.47;;;;;;;19.52;32.40;96525.25;5156888;27;20035;-62
2021/12/19 04:18:20;;;;;;;0.73;0.50;;;;;;;19.51;32.45;96510.22;5156164;27;20031;-62
2021/12/19 04:20:46;;;;;;;0.82;0.47;;;;;;;19.51;32.30;96509.41;5156535;27;20777;-62
2021/12/19 04:23:12;;;;;;;0.63;0.30;;;;;;;19.50;32.21;96505.91;5154162;27;20105;-63
2021/12/19 04:25:38;;;;;;;1.38;0.45;;;;;;;19.51;32.19;96496.00;5153560;27;20412;-63
2021/12/19 04:28:04;;;;;;;0.38;0.25;;;;;;;19.52;32.23;96501.09;5155890;27;20034;-62
2021/12/19 04:30:29;;;;;;;0.20;0.20;;;;;;;19.54;32.18;96492.00;5149150;27;20027;-62
2021/12/19 04:33:09;;;;;;;0.80;0.40;;;;;;;19.54;31.94;96486.63;5141907;27;20473;-63
2021/12/19 04:35:38;;;;;;;0.75;0.40;;;;;;;19.52;31.95;96476.97;5156392;27;20069;-62
2021/12/19 05:15:24;;;;;;;0.47;0.40;;;;;;;19.52;32.00;96404.56;5155179;27;20037;-61
2021/12/19 05:17:50;;;;;;;1.00;0.50;;;;;;;19.55;32.25;96407.81;5147726;27;20033;-61
2021/12/19 05:20:20;;;;;;;1.05;0.57;;;;;;;19.53;32.08;96389.31;5154741;27;20030;-61
2021/12/19 05:22:49;;;;;;;0.75;0.52;;;;;;;19.54;32.07;96390.09;5152238;27;20041;-61
2021/12/19 05:25:17;;;;;;;0.65;0.52;;;;;;;19.54;32.01;96379.38;5155740;27;20062;-62
2021/12/19 05:27:45;;;;;;;0.45;0.40;;;;;;;19.54;32.06;96390.09;5140816;27;20524;-62
2021/12/19 05:30:12;;;;;;;0.63;0.40;;;;;;;19.54;32.09;96382.88;5134159;27;20401;-62
2021/12/19 05:32:39;;;;;;;1.73;0.70;;;;;;;19.55;32.13;96392.53;5145778;27;20035;-62
2021/12/19 05:35:06;;;;;;;1.10;0.60;;;;;;;19.55;32.11;96383.66;5154206;27;20180;-62
2021/12/19 05:45:44;;;;;;;1.30;0.50;;;;;;;19.54;31.89;96363.28;5154856;27;20042;-63
2021/12/19 05:48:09;;;;;;;1.38;0.50;;;;;;;19.52;32.20;96358.97;5153769;27;20038;-62
2021/12/19 05:50:37;;;;;;;1.27;0.73;;;;;;;19.52;32.14;96356.28;5154019;27;20034;-62
2021/12/19 05:53:03;;;;;;;0.80;0.43;;;;;;;19.52;32.10;96350.13;5135164;27;20409;-62
2021/12/19 05:55:28;;;;;;;1.48;0.50;;;;;;;19.52;32.49;96353.63;5134552;27;20047;-63
2021/12/19 05:57:54;;;;;;;2.05;0.50;;;;;;;19.53;32.43;96346.41;5140251;27;20039;-63
2021/12/19 06:00:19;;;;;;;0.95;0.57;;;;;;;19.52;32.36;96344.78;5154263;27;20034;-63
2021/12/19 06:02:45;;;;;;;0.80;0.57;;;;;;;19.51;32.53;96343.97;5141822;27;20031;-62
2021/12/19 06:05:12;;;;;;;0.88;0.50;;;;;;;19.51;32.43;96338.59;5154168;27;20050;-62
2021/12/19 06:07:38;;;;;;;1.88;0.47;;;;;;;19.51;32.48;96329.75;5154148;27;20045;-62
2021/12/19 06:10:05;;;;;;;0.77;0.50;;;;;;;19.51;32.59;96324.38;5154221;27;20030;-63
2021/12/19 06:12:31;;;;;;;1.10;0.68;;;;;;;19.51;32.61;96321.72;5151771;27;20039;-62
2021/12/19 06:14:57;;;;;;;0.70;0.50;;;;;;;19.51;32.69;96319.03;5151316;27;20038;-63
2021/12/19 06:17:23;;;;;;;1.20;0.60;;;;;;;19.50;32.67;96312.84;5153793;27;20561;-62
2021/12/19 06:19:49;;;;;;;1.38;0.47;;;;;;;19.51;32.67;96309.09;5153192;27;20035;-63
2021/12/19 06:22:14;;;;;;;0.98;0.40;;;;;;;19.52;32.71;96307.25;5139916;27;20079;-63
2021/12/19 06:24:40;;;;;;;1.92;0.60;;;;;;;19.52;32.59;96317.97;5150928;27;20038;-63
2021/12/19 06:27:05;;;;;;;0.60;0.40;;;;;;;19.49;32.53;96297.03;5137315;27;20545;-63
2021/12/19 06:29:32;;;;;;;1.13;0.50;;;;;;;19.52;32.93;96308.03;5144621;27;20035;-63
2021/12/19 06:31:59;;;;;;;1.40;0.50;;;;;;;19.52;32.68;96291.94;5134471;27;20031;-63
2021/12/19 06:34:25;;;;;;;1.00;0.63;;;;;;;19.51;32.69;96282.28;5153986;27;20034;-63
2021/12/19 06:36:52;;;;;;;1.73;0.63;;;;;;;19.51;32.53;96284.97;5153765;27;20018;-63
2021/12/19 06:39:19;;;;;;;1.85;0.50;;;;;;;19.53;32.53;96282.03;5152798;27;20023;-63
2021/12/19 06:41:45;;;;;;;1.73;0.55;;;;;;;19.52;32.49;96286.59;5138774;27;20059;-63
2021/12/19 06:44:10;;;;;;;1.02;0.70;;;;;;;19.52;32.69;96275.06;5147773;27;20077;-64
2021/12/19 06:46:36;;;;;;;1.67;0.60;;;;;;;19.54;32.67;96274.78;5134604;27;20035;-64
2021/12/19 06:49:02;;;;;;;0.90;0.57;;;;;;;19.52;32.68;96262.44;5145305;27;20034;-62
2021/12/19 06:51:30;;;;;;;1.23;0.63;;;;;;;19.55;32.58;96258.47;5154172;27;20069;-62
2021/12/19 06:53:56;;;;;;;0.90;0.50;;;;;;;19.54;32.68;96258.69;5157400;27;20107;-62
2021/12/19 06:56:22;;;;;;;1.10;0.70;;;;;;;19.54;32.64;96259.53;5157550;27;20023;-62
2021/12/19 06:58:47;;;;;;;2.53;0.60;;;;;;;19.55;32.52;96253.09;5142560;27;20026;-62
2021/12/19 07:01:13;;;;;;;2.45;0.88;;;;;;;19.55;32.64;96253.09;5147138;27;20031;-62
2021/12/19 07:03:39;;;;;;;1.77;0.50;;;;;;;19.56;32.71;96260.06;5156994;27;20026;-62
2021/12/19 07:06:04;;;;;;;1.92;0.88;;;;;;;19.55;32.54;96253.09;5156914;27;20405;-62
2021/12/19 07:08:30;;;;;;;2.58;0.80;;;;;;;19.56;32.61;96259.25;5157047;27;20019;-61
2021/12/19 07:10:55;;;;;;;1.98;0.85;;;;;;;19.56;32.66;96252.00;5148406;27;20058;-62
2021/12/19 07:13:21;;;;;;;1.88;0.93;;;;;;;19.58;32.51;96243.72;5156909;27;20518;-63
2021/12/19 07:15:48;;;;;;;1.98;0.70;;;;;;;19.59;32.60;96248.00;5157449;27;20026;-63
2021/12/19 07:18:14;;;;;;;1.05;0.80;;;;;;;19.59;32.49;96248.81;5157256;27;20324;-62
2021/12/19 07:20:42;;;;;;;1.10;0.50;;;;;;;19.59;32.82;96237.28;5153125;27;20161;-61
2021/12/19 07:23:11;;;;;;;1.77;0.82;;;;;;;19.60;32.44;96233.53;5156907;27;20409;-62
2021/12/19 07:25:36;;;;;;;0.90;0.68;;;;;;;19.61;32.68;96224.44;5157093;27;20030;-62
2021/12/19 07:28:02;;;;;;;6.57;0.73;;;;;;;19.61;32.82;96227.13;5157073;27;20194;-62
2021/12/19 07:30:27;;;;;;;5.47;1.25;;;;;;;19.62;33.28;96218.78;5169735;27;20621;-61
2021/12/19 07:32:54;;;;;;;4.45;1.27;;;;;;;19.66;33.38;96216.38;5144921;27;20122;-63
2021/12/19 07:35:23;;;;;;;2.88;1.10;;;;;;;19.69;33.55;96215.88;5137720;27;20138;-62
2021/12/19 07:37:51;;;;;;;2.55;1.33;;;;;;;19.74;33.43;96213.22;5152494;27;20022;-62
2021/12/19 07:40:19;;;;;;;5.47;1.10;;;;;;;19.79;33.42;96213.22;5157363;27;20389;-62
2021/12/19 07:42:45;;;;;;;4.38;1.55;;;;;;;19.84;33.25;96207.09;5155976;27;20629;-63
2021/12/19 07:45:12;;;;;;;4.95;1.50;;;;;;;19.90;33.57;96202.59;5145396;27;20038;-62
2021/12/19 07:47:39;;;;;;;3.70;1.52;;;;;;;19.94;33.48;96206.34;5140145;27;20023;-62
2021/12/19 07:50:07;;;;;;;3.95;1.35;;;;;;;19.98;33.34;96191.34;5143445;27;20030;-62
2021/12/19 07:52:33;;;;;;;3.30;1.30;;;;;;;20.02;33.03;96197.78;5154759;27;20449;-64
2021/12/19 07:54:58;;;;;;;2.75;1.38;;;;;;;20.06;33.42;96198.88;5153977;27;20113;-64
2021/12/19 07:57:24;;;;;;;4.05;1.10;;;;;;;20.08;33.38;96190.56;5155925;27;20027;-61
2021/12/19 07:59:50;;;;;;;2.03;1.02;;;;;;;20.12;33.47;96189.75;5152977;27;20035;-69
2021/12/19 08:02:15;;;;;;;3.28;1.25;;;;;;;20.17;33.43;96188.16;5153995;27;20027;-63
2021/12/19 08:04:41;;;;;;;2.92;1.10;;;;;;;20.17;33.64;96185.47;5156148;27;20027;-61
2021/12/19 08:07:08;;;;;;;2.58;1.00;;;;;;;20.17;33.53;96180.13;5149625;27;20035;-64
2021/12/19 08:09:41;;;;;;;5.15;1.17;;;;;;;20.15;33.65;96185.72;5156120;27;20038;-64
2021/12/19 08:12:07;;;;;;;9.57;1.17;;;;;;;20.13;33.52;96179.84;5153823;27;20030;-64
2021/12/19 08:14:33;;;;;;;1.70;0.90;;;;;;;20.11;33.36;96172.03;5156707;27;20042;-64
2021/12/19 08:16:59;;;;;;;1.88;1.00;;;;;;;20.07;33.38;96175.53;5156883;27;20370;-64
2021/12/19 08:19:25;;;;;;;5.22;1.73;;;;;;;20.05;33.51;96173.13;5156639;27;20035;-64
2021/12/19 08:21:53;;;;;;;6.45;3.13;;;;;;;20.02;33.56;96165.59;5154348;27;20034;-63
2021/12/19 08:24:19;;;;;;;24.48;6.68;;;;;;;20.04;33.38;96163.44;5156056;27;20122;-64
2021/12/19 08:26:45;;;;;;;29.30;10.20;;;;;;;20.02;33.29;96157.53;5156014;27;20039;-64
2021/12/19 08:29:12;;;;;;;28.65;10.45;;;;;;;20.01;33.51;96153.25;5154737;27;20034;-64
2021/12/19 08:31:38;;;;;;;39.92;13.45;;;;;;;20.03;33.50;96152.97;5154655;27;20037;-64
2021/12/19 08:34:04;;;;;;;42.08;15.82;;;;;;;20.03;33.32;96152.97;5155904;27;20083;-63
2021/12/19 08:36:30;;;;;;;59.80;20.58;;;;;;;20.01;33.41;96153.25;5148266;27;20035;-64
2021/12/19 08:38:58;;;;;;;49.83;19.08;;;;;;;20.04;33.45;96150.03;5150673;27;20041;-63
2021/12/19 08:41:28;;;;;;;51.97;19.90;;;;;;;20.03;33.56;96151.09;5155561;27;20106;-63
2021/12/19 08:43:54;;;;;;;46.15;21.15;;;;;;;20.05;33.36;96148.97;5155976;27;20029;-63
2021/12/19 08:46:19;;;;;;;48.05;19.63;;;;;;;20.05;33.24;96142.78;5155817;27;20022;-63
2021/12/19 08:48:48;;;;;;;45.83;20.35;;;;;;;20.04;33.30;96141.97;5155038;27;20051;-63
2021/12/19 08:51:14;;;;;;;46.85;20.55;;;;;;;20.06;33.23;96142.53;5154231;27;20041;-63
2021/12/19 08:53:42;;;;;;;41.58;17.88;;;;;;;20.06;33.50;96128.28;5155887;27;20498;-64
2021/12/19 08:56:08;;;;;;;39.47;17.60;;;;;;;20.06;33.25;96134.47;5144828;27;20041;-64
2021/12/19 08:58:34;;;;;;;46.35;18.77;;;;;;;20.06;33.42;96130.97;5143605;27;20019;-64
2021/12/19 09:01:01;;;;;;;41.13;17.77;;;;;;;20.06;33.35;96125.59;5136826;27;20034;-62
2021/12/19 09:03:31;;;;;;;35.65;16.10;;;;;;;20.06;33.43;96122.91;5154784;27;20036;-63
2021/12/19 09:05:58;;;;;;;35.30;16.13;;;;;;;20.07;33.37;96117.28;5154348;27;20031;-63
2021/12/19 09:08:23;;;;;;;42.42;17.40;;;;;;;20.07;33.28;96114.59;5152898;27;20027;-63
2021/12/19 09:10:49;;;;;;;38.88;14.98;;;;;;;20.08;33.40;96115.41;5155286;27;20022;-63
2021/12/19 09:13:15;;;;;;;38.95;15.45;;;;;;;20.09;33.68;96117.81;5154409;27;20557;-63
2021/12/19 09:15:40;;;;;;;28.77;13.10;;;;;;;20.09;33.69;96117.81;5154833;27;20094;-64
2021/12/19 09:18:06;;;;;;;25.58;12.50;;;;;;;20.11;33.59;96113.00;5148414;27;20039;-63
2021/12/19 09:20:31;;;;;;;23.90;10.63;;;;;;;20.11;33.59;96109.53;5155488;27;20430;-63
2021/12/19 09:22:57;;;;;;;28.45;10.25;;;;;;;20.11;33.59;96113.00;5155218;27;20434;-63
2021/12/19 09:25:23;;;;;;;22.45;9.73;;;;;;;20.12;33.47;96105.78;5136467;27;20126;-63
2021/12/19 09:27:49;;;;;;;19.92;10.23;;;;;;;20.13;33.38;96100.13;5146141;27;20055;-63
2021/12/19 09:30:14;;;;;;;24.83;10.63;;;;;;;20.14;33.40;96111.69;5134534;27;20400;-64
2021/12/19 09:32:40;;;;;;;23.05;8.77;;;;;;;20.16;33.38;96103.34;5138876;27;20452;-62
2021/12/19 09:35:07;;;;;;;18.88;9.20;;;;;;;20.17;33.57;96102.28;5154664;27;20031;-63
2021/12/19 09:37:35;;;;;;;17.75;7.55;;;;;;;20.18;33.42;96096.63;5153187;27;20037;-62
2021/12/19 09:40:07;;;;;;;17.55;7.90;;;;;;;20.18;33.67;96101.22;5155018;27;20031;-63
2021/12/19 09:42:37;;;;;;;13.60;6.38;;;;;;;20.18;33.46;96096.63;5153969;27;20034;-62
2021/12/19 09:45:04;;;;;;;22.65;6.70;;;;;;;20.19;33.48;96094.75;5141113;27;20031;-62
2021/12/19 09:47:30;;;;;;;14.70;6.50;;;;;;;20.19;33.48;96092.09;5150334;27;20138;-62
2021/12/19 09:49:57;;;;;;;16.70;5.28;;;;;;;20.19;33.12;96089.41;5134229;27;20038;-62
2021/12/19 09:52:23;;;;;;;13.75;5.25;;;;;;;20.20;32.93;96085.66;5153156;27;20050;-62
2021/12/19 09:54:49;;;;;;;14.55;4.93;;;;;;;20.18;32.85;96082.41;5153932;27;20453;-62
2021/12/19 09:57:15;;;;;;;11.10;5.63;;;;;;;20.18;32.73;96079.72;5150633;27;20058;-63
2021/12/19 09:59:43;;;;;;;9.80;5.32;;;;;;;20.18;32.99;96077.06;5134001;27;20379;-63
2021/12/19 10:02:09;;;;;;;9.13;4.40;;;;;;;20.16;32.99;96079.97;5133676;27;20027;-64
2021/12/19 10:04:37;;;;;;;9.52;4.38;;;;;;;20.17;32.91;96068.19;5153273;27;20054;-64
2021/12/19 10:07:13;;;;;;;8.30;3.88;;;;;;;20.16;32.93;96071.13;5144992;27;20516;-64
2021/12/19 10:10:02;;;;;;;11.07;4.45;;;;;;;20.14;32.72;96063.38;5133623;27;20107;-64
2021/12/19 10:15:00;;;;;;;7.78;4.20;;;;;;;20.16;32.60;96052.34;5154021;27;20102;-64
2021/12/19 10:17:25;;;;;;;4.90;2.88;;;;;;;20.16;32.61;96053.16;5152121;27;20111;-64
2021/12/19 10:19:54;;;;;;;8.40;3.55;;;;;;;20.17;32.61;96037.84;5154481;27;20477;-64
2021/12/19 10:22:31;;;;;;;4.78;2.83;;;;;;;20.19;32.50;96038.41;5154027;27;20038;-64
2021/12/19 10:25:09;;;;;;;7.18;2.13;;;;;;;20.20;32.37;96031.97;5153755;27;20052;-64
2021/12/19 10:27:39;;;;;;;5.70;2.60;;;;;;;20.21;32.45;96034.38;5151520;27;20057;-65
2021/12/19 10:30:26;;;;;;;4.72;2.33;;;;;;;20.20;32.45;96029.28;5154727;27;20034;-64
2021/12/19 10:33:03;;;;;;;4.28;2.47;;;;;;;20.20;32.42;96034.66;5154239;27;20171;-64
2021/12/19 10:35:54;;;;;;;4.15;1.75;;;;;;;20.22;32.33;96032.50;5153335;27;20041;-64
2021/12/19 10:38:27;;;;;;;6.85;2.33;;;;;;;20.23;32.17;96028.72;5121342;27;20035;-65
2021/12/19 10:41:16;;;;;;;3.28;2.15;;;;;;;20.25;32.20;96029.25;5147632;27;20050;-65
2021/12/19 10:43:58;;;;;;;5.50;2.00;;;;;;;20.25;32.31;96024.72;5169058;27;20029;-65
2021/12/19 10:46:31;;;;;;;3.90;1.60;;;;;;;20.25;32.01;96021.19;5140435;27;20490;-64
2021/12/19 10:48:57;;;;;;;4.13;1.75;;;;;;;20.25;32.09;96034.63;5149281;27;20073;-64
2021/12/19 10:51:24;;;;;;;4.05;1.38;;;;;;;20.25;32.16;96021.19;5154119;27;20427;-65
2021/12/19 10:53:54;;;;;;;4.85;1.83;;;;;;;20.26;32.18;96017.44;5150974;27;20031;-64
2021/12/19 10:56:23;;;;;;;3.72;2.15;;;;;;;20.26;32.17;96020.94;5133821;28;20035;-64
2021/12/19 10:58:55;;;;;;;5.60;2.15;;;;;;;20.26;32.10;96030.88;5147968;27;20497;-64
2021/12/19 11:01:29;;;;;;;6.45;1.80;;;;;;;20.24;32.07;96022.28;5167491;27;20034;-64
2021/12/19 11:03:59;;;;;;;3.67;1.52;;;;;;;20.23;32.07;96024.16;5157131;27;20034;-64
2021/12/19 11:06:46;;;;;;;3.20;1.38;;;;;;;20.22;31.79;96029.81;5154069;27;20087;-64
2021/12/19 11:09:20;;;;;;;4.38;2.10;;;;;;;20.21;32.24;96026.31;5152932;27;20047;-64
2021/12/19 11:12:03;;;;;;;4.75;1.38;;;;;;;20.18;32.09;96018.78;5153220;27;20553;-64
2021/12/19 11:14:40;;;;;;;2.78;1.40;;;;;;;20.16;32.21;96015.56;5147214;27;20098;-64
2021/12/19 11:17:12;;;;;;;4.57;1.73;;;;;;;20.15;31.91;96015.84;5133147;28;20079;-64
2021/12/19 11:19:39;;;;;;;3.90;1.40;;;;;;;20.15;32.08;96015.84;5132910;28;20043;-64
2021/12/19 11:22:06;;;;;;;4.22;1.50;;;;;;;20.15;32.02;96015.84;5132699;28;20088;-64
2021/12/19 11:24:32;;;;;;;3.50;1.75;;;;;;;20.15;31.87;96022.00;5149397;27;20034;-64
2021/12/19 11:27:00;;;;;;;2.53;1.50;;;;;;;20.15;32.01;96021.22;5153546;27;20432;-64
2021/12/19 11:29:28;;;;;;;3.75;1.50;;;;;;;20.13;31.92;96014.25;5152264;27;20038;-63
2021/12/19 11:31:58;;;;;;;5.00;2.20;;;;;;;20.12;32.02;96014.53;5133849;27;20039;-63
2021/12/19 11:35:03;;;;;;;3.75;1.70;;;;;;;20.13;31.89;96026.88;5149790;27;20236;-59
2021/12/19 11:37:43;;;;;;;3.00;2.13;;;;;;;20.14;32.15;96012.38;5152144;27;20704;-64
2021/12/19 11:40:14;;;;;;;7.27;1.80;;;;;;;20.16;32.32;96017.47;5156738;27;20117;-63
2021/12/19 11:42:41;;;;;;;5.15;1.85;;;;;;;20.17;32.48;96021.75;5157290;27;20091;-61
2021/12/19 11:45:31;;;;;;;7.07;2.28;;;;;;;20.19;32.61;96014.25;5156557;27;20095;-63
2021/12/19 11:48:34;;;;;;;3.92;1.63;;;;;;;20.19;32.47;96014.25;5156892;27;20465;-64
2021/12/19 11:51:01;;;;;;;2.65;1.60;;;;;;;20.20;32.44;96015.84;5137280;27;20047;-64
2021/12/19 11:53:32;;;;;;;4.90;2.17;;;;;;;20.21;32.65;96001.38;5154872;27;20038;-64
2021/12/19 11:56:09;;;;;;;4.13;2.08;;;;;;;20.24;32.57;96011.53;5139176;27;20045;-65
2021/12/19 11:58:50;;;;;;;3.42;1.38;;;;;;;20.25;32.62;96005.91;5157502;27;20053;-65
2021/12/19 12:01:30;;;;;;;2.72;1.40;;;;;;;20.26;32.67;96006.72;5151681;27;20031;-66
2021/12/19 12:03:57;;;;;;;2.30;1.23;;;;;;;20.25;32.48;96008.59;5155725;27;20050;-66
2021/12/19 12:06:37;;;;;;;2.63;1.55;;;;;;;20.28;32.57;96015.31;5156796;27;20031;-66
2021/12/19 12:09:11;;;;;;;2.00;1.15;;;;;;;20.28;32.49;96012.63;5156704;27;20079;-65
2021/12/19 12:11:57;;;;;;;2.05;1.27;;;;;;;20.30;32.60;96004.28;5145955;27;20118;-66
2021/12/19 12:14:30;;;;;;;5.97;1.42;;;;;;;20.28;32.39;96009.94;5152599;27;20453;-62
2021/12/19 12:16:59;;;;;;;2.63;1.30;;;;;;;20.31;32.53;96012.09;5156414;27;20035;-62
2021/12/19 12:19:38;;;;;;;2.25;1.60;;;;;;;20.31;32.41;96001.34;5155272;27;20033;-61
2021/12/19 12:25:02;;;;;;;1.35;1.00;;;;;;;20.32;32.32;95999.44;5158041;27;20042;-63
2021/12/19 12:27:41;;;;;;;2.72;1.15;;;;;;;20.31;32.34;95998.66;5138377;27;20049;-64
2021/12/19 12:30:11;;;;;;;2.75;1.15;;;;;;;20.31;32.52;95993.28;5154459;27;20083;-65
2021/12/19 12:32:36;;;;;;;3.35;1.80;;;;;;;20.30;32.36;95998.91;5155998;27;20037;-64
2021/12/19 12:35:03;;;;;;;2.22;1.10;;;;;;;20.30;32.57;95988.16;5155914;27;20039;-66
2021/12/19 12:37:29;;;;;;;3.40;1.00;;;;;;;20.28;32.64;96001.88;5156041;27;20138;-63
2021/12/19 12:40:22;;;;;;;1.27;0.75;;;;;;;20.28;32.34;96002.69;5154434;27;20409;-61
2021/12/19 12:43:15;;;;;;;2.42;0.95;;;;;;;20.28;32.69;96005.38;5154806;27;20041;-61
2021/12/19 12:46:12;;;;;;;1.88;0.98;;;;;;;20.30;32.30;95998.91;5151352;27;20094;-63
2021/12/19 12:48:43;;;;;;;2.78;0.80;;;;;;;20.29;32.37;95995.44;5145202;27;20485;-61
2021/12/19 12:51:38;;;;;;;;;;;;;;;20.27;32.45;96001.09;5158851;27;20121;-64
2021/12/19 12:54:09;;;;;;;1.27;0.88;;;;;;;20.28;32.39;95996.50;5137731;27;19915;-62